createdAt,value
2019-03-28T00:03:36.345Z,13.03
2019-03-28T00:08:44.200Z,14.84
2019-03-28T00:13:51.809Z,19.61
2019-03-28T00:18:59.485Z,19.70
2019-03-28T00:24:07.301Z,17.98
2019-03-28T00:29:14.920Z,17.37
2019-03-28T00:34:22.888Z,17.18
2019-03-28T00:39:30.562Z,20.13
2019-03-28T00:44:38.230Z,18.54
2019-03-28T00:49:45.941Z,18.75
2019-03-28T00:54:54.610Z,19.34
2019-03-28T01:00:02.269Z,16.81
2019-03-28T01:05:09.914Z,16.22
2019-03-28T01:10:17.699Z,18.06
2019-03-28T01:15:25.429Z,18.09
2019-03-28T01:20:33.111Z,25.92
2019-03-28T01:25:40.777Z,20.22
2019-03-28T01:30:48.413Z,20.97
2019-03-28T01:35:57.126Z,21.24
2019-03-28T01:41:04.811Z,21.13
2019-03-28T01:46:12.375Z,23.42
2019-03-28T01:51:20.179Z,25.77
2019-03-28T01:56:27.760Z,28.85
2019-03-28T02:01:35.532Z,24.65
2019-03-28T02:06:43.218Z,24.78
2019-03-28T02:11:50.971Z,28.56
2019-03-28T02:16:58.590Z,27.01
2019-03-28T02:22:06.314Z,32.57
2019-03-28T02:27:23.430Z,24.10
2019-03-28T02:32:21.228Z,26.49
2019-03-28T02:37:28.973Z,28.58
2019-03-28T02:42:36.752Z,26.33
2019-03-28T02:47:44.502Z,30.52
2019-03-28T02:52:52.254Z,30.47
2019-03-28T02:57:59.945Z,28.60
2019-03-28T03:03:07.682Z,29.08
2019-03-28T03:08:15.622Z,28.82
2019-03-28T03:13:23.268Z,29.94
2019-03-28T03:18:31.070Z,30.64
2019-03-28T03:23:38.915Z,35.36
2019-03-28T03:28:46.865Z,30.23
2019-03-28T03:33:54.628Z,29.89
2019-03-28T03:39:02.384Z,33.21
2019-03-28T03:44:09.977Z,32.92
2019-03-28T03:49:17.737Z,40.61
2019-03-28T03:54:25.469Z,37.93
2019-03-28T03:59:33.093Z,38.82
2019-03-28T04:04:40.784Z,42.02
2019-03-28T04:09:48.473Z,39.73
2019-03-28T04:14:56.089Z,44.16
2019-03-28T04:20:03.790Z,39.74
2019-03-28T04:25:11.459Z,44.11
2019-03-28T04:30:19.281Z,51.05
2019-03-28T04:35:27.235Z,43.97
2019-03-28T04:40:34.953Z,44.39
2019-03-28T04:45:42.541Z,46.26
2019-03-28T04:50:50.295Z,46.73
2019-03-28T04:55:57.929Z,50.46
2019-03-28T05:01:05.685Z,50.95
2019-03-28T05:06:13.297Z,50.77
2019-03-28T05:11:20.977Z,49.04
2019-03-28T05:16:28.644Z,50.72
2019-03-28T05:21:36.399Z,51.17
2019-03-28T05:26:43.953Z,51.39
2019-03-28T05:31:51.657Z,48.38
2019-03-28T05:36:59.480Z,53.52
2019-03-28T05:42:07.185Z,43.93
2019-03-28T05:47:15.697Z,52.79
2019-03-28T05:52:23.333Z,53.15
2019-03-28T06:02:33.468Z,46.30
2019-03-28T06:07:41.189Z,47.21
2019-03-28T06:12:48.885Z,46.05
2019-03-28T06:17:56.652Z,50.56
2019-03-28T06:23:04.304Z,50.97
2019-03-28T06:28:12.171Z,49.50
2019-03-28T06:33:19.770Z,56.13
2019-03-28T06:38:27.465Z,49.13
2019-03-28T06:43:35.157Z,50.02
2019-03-28T06:48:44.009Z,54.55
2019-03-28T06:53:51.756Z,48.19
2019-03-28T06:58:59.481Z,47.24
2019-03-28T07:04:07.246Z,48.44
2019-03-28T07:09:14.917Z,47.11
2019-03-28T07:14:22.645Z,52.35
2019-03-28T07:19:30.233Z,50.69
2019-03-28T07:24:38.111Z,51.77
2019-03-28T07:29:51.189Z,47.31
2019-03-28T07:34:52.852Z,42.07
2019-03-28T07:40:00.536Z,43.93
2019-03-28T07:45:08.330Z,41.09
2019-03-28T07:50:16.126Z,43.54
2019-03-28T07:55:23.937Z,40.80
2019-03-28T08:00:31.588Z,42.44
2019-03-28T08:05:41.205Z,39.05
2019-03-28T08:10:48.815Z,39.08
2019-03-28T08:15:56.485Z,38.98
2019-03-28T08:21:05.013Z,35.94
2019-03-28T08:26:12.773Z,38.16
2019-03-28T08:31:20.581Z,39.72
2019-03-28T08:36:28.207Z,41.94
2019-03-28T08:41:35.805Z,38.09
2019-03-28T08:46:43.486Z,37.05
2019-03-28T08:51:51.144Z,37.19
2019-03-28T08:56:58.838Z,36.68
2019-03-28T09:02:06.570Z,35.90
2019-03-28T09:07:17.209Z,36.18
2019-03-28T09:12:21.322Z,33.38
2019-03-28T09:17:28.921Z,33.79
2019-03-28T09:22:38.952Z,30.89
2019-03-28T09:27:44.002Z,34.93
2019-03-28T09:32:51.525Z,32.37
2019-03-28T09:37:59.112Z,31.21
2019-03-28T09:43:06.841Z,35.25
2019-03-28T09:48:14.541Z,31.99
2019-03-28T09:53:22.232Z,34.85
2019-03-28T09:58:29.901Z,31.01
2019-03-28T10:03:37.532Z,33.15
2019-03-28T10:08:45.221Z,35.06
2019-03-28T10:13:53.085Z,32.30
2019-03-28T10:19:00.825Z,28.64
2019-03-28T10:24:08.441Z,26.83
2019-03-28T10:29:16.461Z,26.65
2019-03-28T10:34:24.322Z,25.35
2019-03-28T10:39:32.010Z,26.20
2019-03-28T10:44:40.649Z,27.13
2019-03-28T10:49:48.329Z,24.32
2019-03-28T10:54:56.009Z,30.19
2019-03-28T11:00:03.662Z,22.38
2019-03-28T11:05:11.423Z,24.59
2019-03-28T11:10:19.950Z,21.84
2019-03-28T11:15:27.665Z,21.95
2019-03-28T11:20:36.074Z,23.41
2019-03-28T11:25:42.684Z,23.91
2019-03-28T11:30:50.253Z,22.49
2019-03-28T11:35:57.970Z,22.55
2019-03-28T11:41:05.561Z,24.16
2019-03-28T11:46:13.331Z,26.52
2019-03-28T11:51:20.981Z,21.75
2019-03-28T11:56:28.825Z,20.88
2019-03-28T12:01:36.505Z,26.07
2019-03-28T12:06:44.205Z,22.60
2019-03-28T12:11:53.034Z,21.23
2019-03-28T12:16:59.041Z,20.90
2019-03-28T12:22:07.607Z,16.88
2019-03-28T12:27:15.381Z,16.95
2019-03-28T12:32:22.977Z,15.59
2019-03-28T12:37:30.697Z,17.50
2019-03-28T12:42:38.340Z,15.93
2019-03-28T12:47:46.037Z,15.57
2019-03-28T12:52:53.709Z,15.88
2019-03-28T12:58:01.521Z,14.04
2019-03-28T13:03:09.362Z,11.71
2019-03-28T13:08:17.782Z,12.35
2019-03-28T13:13:24.488Z,11.10
2019-03-28T13:18:32.222Z,12.95
2019-03-28T13:23:39.825Z,14.20
2019-03-28T13:28:47.602Z,13.32
2019-03-28T13:33:55.237Z,13.96
2019-03-28T13:39:45.049Z,15.92
2019-03-28T13:44:52.681Z,16.20
2019-03-28T13:50:00.375Z,18.46
2019-03-28T13:55:08.077Z,16.57
2019-03-28T14:00:15.750Z,15.00
2019-03-28T14:05:23.450Z,14.31
2019-03-28T14:10:31.154Z,14.97
2019-03-28T14:15:38.906Z,13.50
2019-03-28T14:20:46.594Z,13.12
2019-03-28T14:25:54.282Z,14.57
2019-03-28T14:31:01.998Z,12.82
2019-03-28T14:36:09.733Z,11.71
2019-03-28T14:41:17.353Z,13.04
2019-03-28T14:46:24.948Z,10.47
2019-03-28T14:51:32.637Z,11.50
2019-03-28T14:56:40.294Z,13.34
2019-03-28T15:01:48.054Z,9.96
2019-03-28T15:06:55.681Z,11.43
2019-03-28T15:12:03.362Z,9.16
2019-03-28T15:17:10.988Z,8.90
2019-03-28T15:22:18.622Z,7.89
2019-03-28T15:27:26.258Z,9.02
2019-03-28T15:32:33.952Z,7.79
2019-03-28T15:37:41.572Z,9.91
2019-03-28T15:42:49.293Z,10.69
2019-03-28T15:47:57.226Z,13.85
2019-03-28T15:53:04.919Z,11.12
2019-03-28T15:58:22.470Z,12.15
2019-03-28T16:03:19.746Z,10.65
2019-03-28T16:08:27.882Z,13.57
2019-03-28T16:13:37.397Z,12.16
2019-03-28T16:18:41.718Z,10.89
2019-03-28T16:23:49.357Z,13.56
2019-03-28T16:28:57.058Z,10.95
2019-03-28T16:34:07.000Z,12.07
2019-03-28T16:39:11.918Z,9.91
2019-03-28T16:44:19.546Z,12.31
2019-03-28T16:49:27.203Z,12.06
2019-03-28T16:54:34.845Z,13.21
2019-03-28T16:59:42.706Z,11.74
2019-03-28T17:04:50.320Z,12.35
2019-03-28T17:09:57.986Z,12.02
2019-03-28T17:15:05.626Z,13.08
2019-03-28T17:20:13.305Z,9.90
2019-03-28T17:25:20.939Z,10.94
2019-03-28T17:30:28.599Z,11.32
2019-03-28T17:35:36.207Z,10.26
2019-03-28T17:40:43.934Z,11.16
2019-03-28T17:45:52.519Z,10.39
2019-03-28T17:56:02.882Z,9.41
2019-03-28T18:01:11.069Z,12.59
2019-03-28T18:06:18.695Z,9.09
2019-03-28T18:11:26.488Z,8.35
2019-03-28T18:16:34.206Z,12.02
2019-03-28T18:21:41.686Z,8.64
2019-03-28T18:26:49.317Z,10.75
2019-03-28T18:31:58.230Z,12.05
2019-03-28T18:37:05.957Z,11.12
2019-03-28T18:42:13.680Z,11.02
2019-03-28T18:47:21.300Z,15.77
2019-03-28T18:52:29.174Z,23.22
2019-03-28T18:57:36.848Z,18.85
2019-03-28T19:02:44.492Z,18.14
2019-03-28T19:07:52.132Z,21.74
2019-03-28T19:13:00.207Z,16.01
2019-03-28T19:18:08.892Z,13.94
2019-03-28T19:23:16.702Z,14.94
2019-03-28T19:28:29.116Z,13.69
2019-03-28T19:33:32.959Z,12.64
2019-03-28T19:38:39.598Z,11.83
2019-03-28T19:43:47.204Z,11.65
2019-03-28T19:48:55.160Z,14.90
2019-03-28T19:54:02.920Z,13.02
2019-03-28T19:59:10.575Z,14.19
2019-03-28T20:04:18.200Z,12.52
2019-03-28T20:09:25.820Z,15.93
2019-03-28T20:14:33.516Z,13.67
2019-03-28T20:19:41.197Z,11.35
2019-03-28T20:24:48.820Z,16.45
2019-03-28T20:29:56.489Z,15.43
2019-03-28T20:35:04.134Z,16.33
2019-03-28T20:40:11.806Z,16.42
2019-03-28T20:45:20.525Z,15.83
2019-03-28T20:50:31.468Z,18.41
2019-03-28T20:55:36.893Z,16.11
2019-03-28T21:00:44.574Z,17.78
2019-03-28T21:05:52.020Z,17.34
2019-03-28T21:10:59.907Z,18.87
2019-03-28T21:16:07.632Z,15.13
2019-03-28T21:21:16.346Z,19.41
2019-03-28T21:26:24.127Z,18.88
2019-03-28T21:31:31.750Z,15.56
2019-03-28T21:36:39.694Z,15.77
2019-03-28T21:41:48.545Z,15.67
2019-03-28T21:46:56.229Z,14.66
2019-03-28T21:52:03.922Z,14.97
2019-03-28T21:57:14.401Z,14.46
2019-03-28T22:02:19.983Z,15.75
2019-03-28T22:07:27.800Z,14.25
2019-03-28T22:12:35.433Z,15.94
2019-03-28T22:17:43.092Z,16.04
2019-03-28T22:22:51.857Z,14.37
2019-03-28T22:27:59.527Z,16.65
2019-03-28T22:33:09.357Z,15.66
2019-03-28T22:38:16.944Z,18.41
2019-03-28T22:43:24.598Z,22.73
2019-03-28T22:48:32.601Z,18.97
2019-03-28T22:53:40.402Z,15.10
2019-03-28T22:58:48.130Z,16.35
2019-03-28T23:03:55.797Z,18.53
2019-03-28T23:09:03.471Z,17.78
2019-03-28T23:14:11.538Z,19.32
2019-03-28T23:19:19.196Z,16.78
2019-03-28T23:24:26.916Z,15.71
2019-03-28T23:29:35.080Z,18.69
2019-03-28T23:34:42.828Z,15.25
2019-03-28T23:39:50.541Z,16.30
2019-03-28T23:44:58.349Z,15.29
2019-03-28T23:50:06.982Z,18.69
2019-03-28T23:55:14.193Z,22.42
